sensor_id;sensor_type;location;lat;lon;timestamp;temperature;humidity
24382;DHT22;12502;50.678;7.172;2023-04-06T00:02:16;3.60;99.90
24382;DHT22;12502;50.678;7.172;2023-04-06T00:07:18;3.50;99.90
24382;DHT22;12502;50.678;7.172;2023-04-06T00:12:19;3.50;99.90
24382;DHT22;12502;50.678;7.172;2023-04-06T00:17:21;3.30;99.90
24382;DHT22;12502;50.678;7.172;2023-04-06T00:22:23;3.30;99.90
24382;DHT22;12502;50.678;7.172;2023-04-06T00:27:25;3.20;99.90
24382;DHT22;12502;50.678;7.172;2023-04-06T00:32:26;3.20;99.90
24382;DHT22;12502;50.678;7.172;2023-04-06T00:37:29;3.10;99.90
24382;DHT22;12502;50.678;7.172;2023-04-06T00:42:31;3.00;99.90
24382;DHT22;12502;50.678;7.172;2023-04-06T00:47:32;3.00;99.90
24382;DHT22;12502;50.678;7.172;2023-04-06T00:52:34;3.00;99.90
24382;DHT22;12502;50.678;7.172;2023-04-06T00:57:37;3.00;99.90
24382;DHT22;12502;50.678;7.172;2023-04-06T01:02:39;2.90;99.90
24382;DHT22;12502;50.678;7.172;2023-04-06T01:07:41;2.90;99.90
24382;DHT22;12502;50.678;7.172;2023-04-06T01:12:42;2.70;99.90
24382;DHT22;12502;50.678;7.172;2023-04-06T01:17:44;2.70;99.90
24382;DHT22;12502;50.678;7.172;2023-04-06T01:22:46;2.70;99.90
24382;DHT22;12502;50.678;7.172;2023-04-06T01:27:49;2.60;99.90
24382;DHT22;12502;50.678;7.172;2023-04-06T01:32:52;2.60;99.90
24382;DHT22;12502;50.678;7.172;2023-04-06T01:37:53;2.60;99.90
24382;DHT22;12502;50.678;7.172;2023-04-06T01:42:58;2.50;99.90
24382;DHT22;12502;50.678;7.172;2023-04-06T01:48:06;2.50;99.90
24382;DHT22;12502;50.678;7.172;2023-04-06T01:53:08;2.50;99.90
24382;DHT22;12502;50.678;7.172;2023-04-06T01:58:10;2.50;99.90
24382;DHT22;12502;50.678;7.172;2023-04-06T02:03:12;2.50;99.90
24382;DHT22;12502;50.678;7.172;2023-04-06T02:08:15;2.50;99.90
24382;DHT22;12502;50.678;7.172;2023-04-06T02:13:16;2.50;99.90
24382;DHT22;12502;50.678;7.172;2023-04-06T02:18:18;2.50;99.90
24382;DHT22;12502;50.678;7.172;2023-04-06T02:23:20;2.50;99.90
24382;DHT22;12502;50.678;7.172;2023-04-06T02:28:21;2.50;99.90
24382;DHT22;12502;50.678;7.172;2023-04-06T02:33:23;2.50;99.90
24382;DHT22;12502;50.678;7.172;2023-04-06T02:38:25;2.40;99.90
24382;DHT22;12502;50.678;7.172;2023-04-06T02:43:26;2.40;99.90
24382;DHT22;12502;50.678;7.172;2023-04-06T02:48:28;2.30;99.90
24382;DHT22;12502;50.678;7.172;2023-04-06T02:53:30;2.30;99.90
24382;DHT22;12502;50.678;7.172;2023-04-06T02:58:31;2.30;99.90
24382;DHT22;12502;50.678;7.172;2023-04-06T03:03:34;2.20;99.90
24382;DHT22;12502;50.678;7.172;2023-04-06T03:08:35;2.20;99.90
24382;DHT22;12502;50.678;7.172;2023-04-06T03:13:37;2.10;99.90
24382;DHT22;12502;50.678;7.172;2023-04-06T03:18:41;2.10;99.90
24382;DHT22;12502;50.678;7.172;2023-04-06T03:23:44;2.00;99.90
24382;DHT22;12502;50.678;7.172;2023-04-06T03:28:46;2.00;99.90
24382;DHT22;12502;50.678;7.172;2023-04-06T03:33:47;2.00;99.90
24382;DHT22;12502;50.678;7.172;2023-04-06T03:38:49;2.00;99.90
24382;DHT22;12502;50.678;7.172;2023-04-06T03:43:51;1.90;99.90
24382;DHT22;12502;50.678;7.172;2023-04-06T03:48:53;1.90;99.90
24382;DHT22;12502;50.678;7.172;2023-04-06T03:53:54;1.90;99.90
24382;DHT22;12502;50.678;7.172;2023-04-06T03:58:56;1.90;99.90
24382;DHT22;12502;50.678;7.172;2023-04-06T04:03:58;1.90;99.90
24382;DHT22;12502;50.678;7.172;2023-04-06T04:09:00;1.90;99.90
24382;DHT22;12502;50.678;7.172;2023-04-06T04:14:01;1.90;99.90
24382;DHT22;12502;50.678;7.172;2023-04-06T04:19:03;1.90;99.90
24382;DHT22;12502;50.678;7.172;2023-04-06T04:24:05;1.90;99.90
24382;DHT22;12502;50.678;7.172;2023-04-06T04:29:06;1.90;99.90
24382;DHT22;12502;50.678;7.172;2023-04-06T04:34:08;1.80;99.90
24382;DHT22;12502;50.678;7.172;2023-04-06T04:39:10;1.80;99.90
24382;DHT22;12502;50.678;7.172;2023-04-06T04:44:12;1.80;99.90
24382;DHT22;12502;50.678;7.172;2023-04-06T04:49:14;1.70;99.90
24382;DHT22;12502;50.678;7.172;2023-04-06T04:54:15;1.60;99.90
24382;DHT22;12502;50.678;7.172;2023-04-06T04:59:17;1.70;99.90
24382;DHT22;12502;50.678;7.172;2023-04-06T05:04:19;1.70;99.90
24382;DHT22;12502;50.678;7.172;2023-04-06T05:09:20;1.60;99.90
24382;DHT22;12502;50.678;7.172;2023-04-06T05:14:22;1.60;99.90
24382;DHT22;12502;50.678;7.172;2023-04-06T05:19:24;1.60;99.90
24382;DHT22;12502;50.678;7.172;2023-04-06T05:24:25;1.60;99.90
24382;DHT22;12502;50.678;7.172;2023-04-06T05:29:29;1.60;99.90
24382;DHT22;12502;50.678;7.172;2023-04-06T05:34:30;1.60;99.90
24382;DHT22;12502;50.678;7.172;2023-04-06T05:39:32;1.70;99.90
24382;DHT22;12502;50.678;7.172;2023-04-06T05:44:34;1.70;99.90
24382;DHT22;12502;50.678;7.172;2023-04-06T05:49:37;1.80;99.90
24382;DHT22;12502;50.678;7.172;2023-04-06T05:54:38;1.90;99.90
24382;DHT22;12502;50.678;7.172;2023-04-06T05:59:40;1.90;99.90
24382;DHT22;12502;50.678;7.172;2023-04-06T06:04:42;2.10;99.90
24382;DHT22;12502;50.678;7.172;2023-04-06T06:09:43;2.20;99.90
24382;DHT22;12502;50.678;7.172;2023-04-06T06:14:45;2.30;99.90
24382;DHT22;12502;50.678;7.172;2023-04-06T06:19:47;2.40;99.90
24382;DHT22;12502;50.678;7.172;2023-04-06T06:24:49;2.60;99.90
24382;DHT22;12502;50.678;7.172;2023-04-06T06:29:51;2.60;99.90
24382;DHT22;12502;50.678;7.172;2023-04-06T06:34:53;2.80;99.90
24382;DHT22;12502;50.678;7.172;2023-04-06T06:39:55;3.00;99.90
24382;DHT22;12502;50.678;7.172;2023-04-06T06:44:56;3.00;99.90
24382;DHT22;12502;50.678;7.172;2023-04-06T06:49:58;3.20;99.90
24382;DHT22;12502;50.678;7.172;2023-04-06T06:54:59;3.50;99.90
24382;DHT22;12502;50.678;7.172;2023-04-06T07:00:01;3.80;99.90
24382;DHT22;12502;50.678;7.172;2023-04-06T07:05:04;4.00;99.90
24382;DHT22;12502;50.678;7.172;2023-04-06T07:10:25;4.30;99.90
24382;DHT22;12502;50.678;7.172;2023-04-06T07:15:27;4.50;99.90
24382;DHT22;12502;50.678;7.172;2023-04-06T07:20:29;4.70;99.90
24382;DHT22;12502;50.678;7.172;2023-04-06T07:25:31;4.90;99.90
24382;DHT22;12502;50.678;7.172;2023-04-06T07:30:33;5.30;99.90
24382;DHT22;12502;50.678;7.172;2023-04-06T07:35:37;5.70;99.90
24382;DHT22;12502;50.678;7.172;2023-04-06T07:40:39;6.00;99.90
24382;DHT22;12502;50.678;7.172;2023-04-06T07:45:42;6.30;99.90
24382;DHT22;12502;50.678;7.172;2023-04-06T07:50:43;6.40;99.90
24382;DHT22;12502;50.678;7.172;2023-04-06T07:55:45;6.80;99.90
24382;DHT22;12502;50.678;7.172;2023-04-06T08:00:47;7.20;99.90
24382;DHT22;12502;50.678;7.172;2023-04-06T08:05:49;7.70;99.90
24382;DHT22;12502;50.678;7.172;2023-04-06T08:10:51;8.00;99.90
24382;DHT22;12502;50.678;7.172;2023-04-06T08:15:52;8.60;99.90
24382;DHT22;12502;50.678;7.172;2023-04-06T08:20:55;8.80;99.90
24382;DHT22;12502;50.678;7.172;2023-04-06T08:25:58;8.80;99.90
24382;DHT22;12502;50.678;7.172;2023-04-06T08:31:03;9.10;99.90
24382;DHT22;12502;50.678;7.172;2023-04-06T08:36:08;9.00;99.90
24382;DHT22;12502;50.678;7.172;2023-04-06T08:41:10;9.40;99.90
24382;DHT22;12502;50.678;7.172;2023-04-06T08:46:13;9.70;99.90
24382;DHT22;12502;50.678;7.172;2023-04-06T08:51:15;10.10;99.90
24382;DHT22;12502;50.678;7.172;2023-04-06T08:56:17;10.40;99.90
24382;DHT22;12502;50.678;7.172;2023-04-06T09:01:23;10.40;99.60
24382;DHT22;12502;50.678;7.172;2023-04-06T09:06:25;10.70;98.40
24382;DHT22;12502;50.678;7.172;2023-04-06T09:11:41;10.80;99.40
24382;DHT22;12502;50.678;7.172;2023-04-06T09:16:43;11.20;99.30
24382;DHT22;12502;50.678;7.172;2023-04-06T09:27:10;11.80;96.90
24382;DHT22;12502;50.678;7.172;2023-04-06T09:32:14;11.90;96.20
24382;DHT22;12502;50.678;7.172;2023-04-06T09:37:19;11.80;95.90
24382;DHT22;12502;50.678;7.172;2023-04-06T09:42:24;12.10;96.40
24382;DHT22;12502;50.678;7.172;2023-04-06T09:47:27;12.70;94.30
24382;DHT22;12502;50.678;7.172;2023-04-06T09:52:40;12.70;92.10
24382;DHT22;12502;50.678;7.172;2023-04-06T09:57:48;13.30;91.70
24382;DHT22;12502;50.678;7.172;2023-04-06T10:07:53;13.60;90.40
24382;DHT22;12502;50.678;7.172;2023-04-06T10:13:01;13.60;88.40
24382;DHT22;12502;50.678;7.172;2023-04-06T10:18:05;13.10;88.70
24382;DHT22;12502;50.678;7.172;2023-04-06T10:23:13;13.10;88.40
24382;DHT22;12502;50.678;7.172;2023-04-06T10:28:18;13.00;86.40
24382;DHT22;12502;50.678;7.172;2023-04-06T10:33:20;13.20;83.80
24382;DHT22;12502;50.678;7.172;2023-04-06T10:38:44;13.70;83.90
24382;DHT22;12502;50.678;7.172;2023-04-06T10:43:44;13.70;84.80
24382;DHT22;12502;50.678;7.172;2023-04-06T10:48:49;13.80;82.50
24382;DHT22;12502;50.678;7.172;2023-04-06T10:53:52;13.60;80.90
24382;DHT22;12502;50.678;7.172;2023-04-06T10:58:54;13.70;81.00
24382;DHT22;12502;50.678;7.172;2023-04-06T11:04:00;14.00;82.40
24382;DHT22;12502;50.678;7.172;2023-04-06T11:09:02;13.70;79.50
24382;DHT22;12502;50.678;7.172;2023-04-06T11:14:04;13.80;80.40
24382;DHT22;12502;50.678;7.172;2023-04-06T11:19:08;14.00;79.80
24382;DHT22;12502;50.678;7.172;2023-04-06T11:24:11;13.90;79.40
24382;DHT22;12502;50.678;7.172;2023-04-06T11:29:18;14.00;81.90
24382;DHT22;12502;50.678;7.172;2023-04-06T11:34:23;13.90;79.70
24382;DHT22;12502;50.678;7.172;2023-04-06T11:39:26;13.80;81.50
24382;DHT22;12502;50.678;7.172;2023-04-06T11:44:31;13.60;80.70
24382;DHT22;12502;50.678;7.172;2023-04-06T11:49:36;13.80;80.00
24382;DHT22;12502;50.678;7.172;2023-04-06T11:54:38;14.00;83.20
24382;DHT22;12502;50.678;7.172;2023-04-06T11:59:40;13.90;80.00
24382;DHT22;12502;50.678;7.172;2023-04-06T12:04:45;14.20;78.50
24382;DHT22;12502;50.678;7.172;2023-04-06T12:09:47;14.10;77.80
24382;DHT22;12502;50.678;7.172;2023-04-06T12:14:49;14.50;79.90
24382;DHT22;12502;50.678;7.172;2023-04-06T12:19:53;14.30;77.90
24382;DHT22;12502;50.678;7.172;2023-04-06T12:24:57;14.10;76.30
24382;DHT22;12502;50.678;7.172;2023-04-06T12:30:00;14.50;78.00
24382;DHT22;12502;50.678;7.172;2023-04-06T12:35:02;14.60;78.00
24382;DHT22;12502;50.678;7.172;2023-04-06T12:40:04;14.70;76.60
24382;DHT22;12502;50.678;7.172;2023-04-06T12:45:06;14.70;75.90
24382;DHT22;12502;50.678;7.172;2023-04-06T12:50:08;14.50;75.30
24382;DHT22;12502;50.678;7.172;2023-04-06T12:55:16;14.60;76.10
24382;DHT22;12502;50.678;7.172;2023-04-06T13:00:18;14.30;76.90
24382;DHT22;12502;50.678;7.172;2023-04-06T13:05:20;14.40;76.10
24382;DHT22;12502;50.678;7.172;2023-04-06T13:10:23;14.40;75.70
24382;DHT22;12502;50.678;7.172;2023-04-06T13:15:24;14.10;77.80
24382;DHT22;12502;50.678;7.172;2023-04-06T13:20:27;14.10;79.40
24382;DHT22;12502;50.678;7.172;2023-04-06T13:25:29;14.00;80.40
24382;DHT22;12502;50.678;7.172;2023-04-06T13:30:31;13.80;80.50
24382;DHT22;12502;50.678;7.172;2023-04-06T13:35:33;13.60;82.20
24382;DHT22;12502;50.678;7.172;2023-04-06T13:40:40;13.60;83.60
24382;DHT22;12502;50.678;7.172;2023-04-06T13:45:42;13.50;83.90
24382;DHT22;12502;50.678;7.172;2023-04-06T13:50:49;13.30;84.20
24382;DHT22;12502;50.678;7.172;2023-04-06T13:55:54;13.00;86.00
24382;DHT22;12502;50.678;7.172;2023-04-06T14:01:03;12.70;88.10
24382;DHT22;12502;50.678;7.172;2023-04-06T14:06:09;12.70;88.70
24382;DHT22;12502;50.678;7.172;2023-04-06T14:11:16;12.80;89.80
24382;DHT22;12502;50.678;7.172;2023-04-06T14:16:18;12.70;90.50
24382;DHT22;12502;50.678;7.172;2023-04-06T14:21:27;12.70;90.90
24382;DHT22;12502;50.678;7.172;2023-04-06T14:26:30;12.70;91.80
24382;DHT22;12502;50.678;7.172;2023-04-06T14:36:47;12.10;94.20
24382;DHT22;12502;50.678;7.172;2023-04-06T14:42:00;12.00;95.70
24382;DHT22;12502;50.678;7.172;2023-04-06T14:47:08;11.90;96.70
24382;DHT22;12502;50.678;7.172;2023-04-06T14:57:25;11.60;99.90
24382;DHT22;12502;50.678;7.172;2023-04-06T15:02:32;11.60;99.90
24382;DHT22;12502;50.678;7.172;2023-04-06T15:07:35;11.40;99.90
24382;DHT22;12502;50.678;7.172;2023-04-06T15:12:37;11.30;99.90
24382;DHT22;12502;50.678;7.172;2023-04-06T15:17:40;11.20;99.90
24382;DHT22;12502;50.678;7.172;2023-04-06T15:22:55;11.10;99.90
24382;DHT22;12502;50.678;7.172;2023-04-06T15:27:56;11.00;99.90
24382;DHT22;12502;50.678;7.172;2023-04-06T15:33:01;10.90;99.90
24382;DHT22;12502;50.678;7.172;2023-04-06T15:38:02;10.90;99.90
24382;DHT22;12502;50.678;7.172;2023-04-06T15:43:04;10.70;99.90
24382;DHT22;12502;50.678;7.172;2023-04-06T15:48:06;10.40;99.90
24382;DHT22;12502;50.678;7.172;2023-04-06T15:53:08;10.30;99.90
24382;DHT22;12502;50.678;7.172;2023-04-06T15:58:09;10.20;99.90
24382;DHT22;12502;50.678;7.172;2023-04-06T16:03:11;10.20;99.90
24382;DHT22;12502;50.678;7.172;2023-04-06T16:08:14;10.00;99.90
24382;DHT22;12502;50.678;7.172;2023-04-06T16:13:16;9.90;99.90
24382;DHT22;12502;50.678;7.172;2023-04-06T16:18:18;9.70;99.90
24382;DHT22;12502;50.678;7.172;2023-04-06T16:23:20;9.50;99.90
24382;DHT22;12502;50.678;7.172;2023-04-06T16:28:22;9.50;99.90
24382;DHT22;12502;50.678;7.172;2023-04-06T16:33:25;9.30;99.90
24382;DHT22;12502;50.678;7.172;2023-04-06T16:38:27;9.00;99.90
24382;DHT22;12502;50.678;7.172;2023-04-06T16:43:34;8.90;99.90
24382;DHT22;12502;50.678;7.172;2023-04-06T16:48:36;8.80;99.90
24382;DHT22;12502;50.678;7.172;2023-04-06T16:53:38;8.60;99.90
24382;DHT22;12502;50.678;7.172;2023-04-06T16:58:39;8.50;99.90
24382;DHT22;12502;50.678;7.172;2023-04-06T17:03:41;8.60;99.90
24382;DHT22;12502;50.678;7.172;2023-04-06T17:08:45;8.50;99.90
24382;DHT22;12502;50.678;7.172;2023-04-06T17:13:47;8.30;99.90
24382;DHT22;12502;50.678;7.172;2023-04-06T17:18:49;8.30;99.90
24382;DHT22;12502;50.678;7.172;2023-04-06T17:23:51;8.40;99.90
24382;DHT22;12502;50.678;7.172;2023-04-06T17:28:53;8.20;99.90
24382;DHT22;12502;50.678;7.172;2023-04-06T17:33:54;8.10;99.90
24382;DHT22;12502;50.678;7.172;2023-04-06T17:38:57;8.10;99.90
24382;DHT22;12502;50.678;7.172;2023-04-06T17:43:59;8.00;99.90
24382;DHT22;12502;50.678;7.172;2023-04-06T17:49:01;8.00;99.90
24382;DHT22;12502;50.678;7.172;2023-04-06T17:54:02;7.90;99.90
24382;DHT22;12502;50.678;7.172;2023-04-06T17:59:04;7.90;99.90
24382;DHT22;12502;50.678;7.172;2023-04-06T18:04:08;7.80;99.90
24382;DHT22;12502;50.678;7.172;2023-04-06T18:09:13;7.90;99.90
24382;DHT22;12502;50.678;7.172;2023-04-06T18:14:15;7.90;99.90
24382;DHT22;12502;50.678;7.172;2023-04-06T18:19:18;7.80;99.90
24382;DHT22;12502;50.678;7.172;2023-04-06T18:24:20;7.90;99.90
24382;DHT22;12502;50.678;7.172;2023-04-06T18:29:41;7.80;99.90
24382;DHT22;12502;50.678;7.172;2023-04-06T18:34:47;7.70;99.90
24382;DHT22;12502;50.678;7.172;2023-04-06T18:39:49;7.70;99.90
24382;DHT22;12502;50.678;7.172;2023-04-06T18:44:51;7.70;99.90
24382;DHT22;12502;50.678;7.172;2023-04-06T18:49:53;7.70;99.90
24382;DHT22;12502;50.678;7.172;2023-04-06T18:54:54;7.70;99.90
24382;DHT22;12502;50.678;7.172;2023-04-06T18:59:56;7.70;99.90
24382;DHT22;12502;50.678;7.172;2023-04-06T19:04:58;7.70;99.90
24382;DHT22;12502;50.678;7.172;2023-04-06T19:10:00;7.70;99.90
24382;DHT22;12502;50.678;7.172;2023-04-06T19:15:05;7.70;99.90
24382;DHT22;12502;50.678;7.172;2023-04-06T19:20:07;7.60;99.90
24382;DHT22;12502;50.678;7.172;2023-04-06T19:25:09;7.60;99.90
24382;DHT22;12502;50.678;7.172;2023-04-06T19:30:12;7.60;99.90
24382;DHT22;12502;50.678;7.172;2023-04-06T19:35:14;7.70;99.90
24382;DHT22;12502;50.678;7.172;2023-04-06T19:40:15;7.60;99.90
24382;DHT22;12502;50.678;7.172;2023-04-06T19:45:17;7.60;99.90
24382;DHT22;12502;50.678;7.172;2023-04-06T19:50:19;7.60;99.90
24382;DHT22;12502;50.678;7.172;2023-04-06T19:55:21;7.60;99.90
24382;DHT22;12502;50.678;7.172;2023-04-06T20:00:23;7.60;99.90
24382;DHT22;12502;50.678;7.172;2023-04-06T20:05:24;7.60;99.90
24382;DHT22;12502;50.678;7.172;2023-04-06T20:10:26;7.60;99.90
24382;DHT22;12502;50.678;7.172;2023-04-06T20:15:28;7.60;99.90
24382;DHT22;12502;50.678;7.172;2023-04-06T20:20:30;7.70;99.90
24382;DHT22;12502;50.678;7.172;2023-04-06T20:25:32;7.60;99.90
24382;DHT22;12502;50.678;7.172;2023-04-06T20:30:34;7.60;99.90
24382;DHT22;12502;50.678;7.172;2023-04-06T20:35:38;7.60;99.90
24382;DHT22;12502;50.678;7.172;2023-04-06T20:40:42;7.60;99.90
24382;DHT22;12502;50.678;7.172;2023-04-06T20:45:44;7.60;99.90
24382;DHT22;12502;50.678;7.172;2023-04-06T20:50:46;7.70;99.90
24382;DHT22;12502;50.678;7.172;2023-04-06T20:55:48;7.70;99.90
24382;DHT22;12502;50.678;7.172;2023-04-06T21:00:49;7.70;99.90
24382;DHT22;12502;50.678;7.172;2023-04-06T21:05:54;7.70;99.90
24382;DHT22;12502;50.678;7.172;2023-04-06T21:10:57;7.70;99.90
24382;DHT22;12502;50.678;7.172;2023-04-06T21:15:59;7.70;99.90
24382;DHT22;12502;50.678;7.172;2023-04-06T21:21:02;7.80;99.90
24382;DHT22;12502;50.678;7.172;2023-04-06T21:26:03;7.70;99.90
24382;DHT22;12502;50.678;7.172;2023-04-06T21:31:06;7.70;99.90
24382;DHT22;12502;50.678;7.172;2023-04-06T21:36:11;7.80;99.90
24382;DHT22;12502;50.678;7.172;2023-04-06T21:41:13;7.70;99.90
24382;DHT22;12502;50.678;7.172;2023-04-06T21:46:14;7.70;99.90
24382;DHT22;12502;50.678;7.172;2023-04-06T21:51:17;7.80;99.90
24382;DHT22;12502;50.678;7.172;2023-04-06T21:56:22;7.80;99.90
24382;DHT22;12502;50.678;7.172;2023-04-06T22:01:24;7.80;99.90
24382;DHT22;12502;50.678;7.172;2023-04-06T22:06:28;7.70;99.90
24382;DHT22;12502;50.678;7.172;2023-04-06T22:11:37;7.70;99.90
24382;DHT22;12502;50.678;7.172;2023-04-06T22:16:40;7.70;99.90
24382;DHT22;12502;50.678;7.172;2023-04-06T22:21:43;7.80;99.90
24382;DHT22;12502;50.678;7.172;2023-04-06T22:26:44;7.80;99.90
24382;DHT22;12502;50.678;7.172;2023-04-06T22:31:46;7.80;99.90
24382;DHT22;12502;50.678;7.172;2023-04-06T22:36:48;7.80;99.90
24382;DHT22;12502;50.678;7.172;2023-04-06T22:41:49;7.80;99.90
24382;DHT22;12502;50.678;7.172;2023-04-06T22:46:51;7.80;99.90
24382;DHT22;12502;50.678;7.172;2023-04-06T22:51:54;7.80;99.90
24382;DHT22;12502;50.678;7.172;2023-04-06T22:56:56;7.80;99.90
24382;DHT22;12502;50.678;7.172;2023-04-06T23:01:57;7.80;99.90
24382;DHT22;12502;50.678;7.172;2023-04-06T23:07:00;7.80;99.90
24382;DHT22;12502;50.678;7.172;2023-04-06T23:12:02;7.80;99.90
24382;DHT22;12502;50.678;7.172;2023-04-06T23:17:04;7.80;99.90
24382;DHT22;12502;50.678;7.172;2023-04-06T23:22:06;7.80;99.90
24382;DHT22;12502;50.678;7.172;2023-04-06T23:27:08;7.80;99.90
24382;DHT22;12502;50.678;7.172;2023-04-06T23:32:09;7.90;99.90
24382;DHT22;12502;50.678;7.172;2023-04-06T23:37:11;7.90;99.90
24382;DHT22;12502;50.678;7.172;2023-04-06T23:42:13;7.80;99.90
24382;DHT22;12502;50.678;7.172;2023-04-06T23:47:15;7.80;99.90
24382;DHT22;12502;50.678;7.172;2023-04-06T23:52:17;7.80;99.90
24382;DHT22;12502;50.678;7.172;2023-04-06T23:57:19;7.80;99.90
